Time;durP1;ratioP1;P1;durP2;ratioP2;P2;SDS_P1;SDS_P2;PMS_P1;PMS_P2;Temp;Humidity;BMP_temperature;BMP_pressure;BME280_temperature;BME280_humidity;BME280_pressure;Samples;Min_cycle;Max_cycle;Signal;HPM_P1;HPM_P2
2022/07/02 00:03:10;;;;;;;1.42;0.95;;;27.00;69.00;;;;;;10947448;32;20183;-76
2022/07/02 00:09:14;;;;;;;2.92;1.42;;;27.00;69.10;;;;;;10956890;32;20038;-76
2022/07/02 00:15:16;;;;;;;1.40;0.95;;;26.90;69.20;;;;;;10971417;32;20068;-76
2022/07/02 00:21:18;;;;;;;2.42;1.40;;;26.80;69.30;;;;;;10983617;32;20353;-76
2022/07/02 00:27:26;;;;;;;2.53;1.08;;;26.80;69.40;;;;;;10984282;32;20027;-76
2022/07/02 00:33:33;;;;;;;1.45;0.95;;;26.80;69.50;;;;;;10970713;32;20480;-76
2022/07/02 00:39:36;;;;;;;2.62;1.37;;;26.70;69.60;;;;;;10984004;32;20019;-76
2022/07/02 00:45:38;;;;;;;1.98;1.27;;;26.70;69.60;;;;;;10983843;32;20015;-76
2022/07/02 00:51:40;;;;;;;3.03;1.37;;;26.70;69.60;;;;;;10983508;32;20053;-76
2022/07/02 00:57:46;;;;;;;2.70;1.12;;;26.70;69.40;;;;;;10983417;32;20054;-76
2022/07/02 01:03:49;;;;;;;3.87;1.85;;;26.70;69.50;;;;;;10980236;32;20050;-76
2022/07/02 01:16:14;;;;;;;1.55;0.80;;;26.50;69.70;;;;;;10982622;32;20031;-76
2022/07/02 01:22:23;;;;;;;2.15;1.50;;;26.50;69.70;;;;;;10982464;32;20305;-76
2022/07/02 01:28:26;;;;;;;3.45;1.50;;;26.40;69.80;;;;;;10981975;32;20057;-76
2022/07/02 01:34:34;;;;;;;2.85;1.70;;;26.30;69.80;;;;;;10981902;32;20064;-76
2022/07/02 01:40:36;;;;;;;3.08;1.37;;;26.30;69.90;;;;;;10981712;32;20354;-76
2022/07/02 01:47:04;;;;;;;4.45;1.67;;;26.30;70.00;;;;;;10981448;32;20026;-76
2022/07/02 01:53:06;;;;;;;1.10;0.80;;;26.30;69.90;;;;;;10981396;32;20018;-76
2022/07/02 01:59:08;;;;;;;3.17;1.25;;;26.30;70.00;;;;;;10981077;32;20398;-76
2022/07/02 02:05:10;;;;;;;2.62;1.42;;;26.30;69.90;;;;;;10980980;32;20077;-76
2022/07/02 02:11:25;;;;;;;4.12;1.95;;;26.30;69.90;;;;;;10980581;32;20034;-76
2022/07/02 02:17:28;;;;;;;2.83;1.55;;;26.30;69.40;;;;;;10980471;32;20041;-76
2022/07/02 02:23:30;;;;;;;2.08;1.48;;;26.20;69.50;;;;;;10980241;32;20058;-76
2022/07/02 02:29:32;;;;;;;3.53;1.77;;;26.10;69.70;;;;;;10979823;32;20391;-76
2022/07/02 02:35:34;;;;;;;2.83;1.48;;;26.10;69.70;;;;;;10979851;32;20045;-76
2022/07/02 02:41:36;;;;;;;5.70;1.70;;;26.00;69.80;;;;;;10979372;32;20019;-76
2022/07/02 02:47:39;;;;;;;2.03;1.33;;;25.90;69.90;;;;;;10979597;32;20403;-76
2022/07/02 02:53:43;;;;;;;0.65;0.62;;;25.90;70.00;;;;;;10979594;32;20019;-76
2022/07/02 02:59:45;;;;;;;2.65;1.15;;;25.80;70.10;;;;;;10979463;32;20031;-76
2022/07/02 03:05:48;;;;;;;1.30;0.90;;;25.90;70.20;;;;;;10979524;32;20022;-70
2022/07/02 03:11:51;;;;;;;3.95;1.85;;;26.00;69.80;;;;;;10961197;32;20097;-69
2022/07/02 03:17:54;;;;;;;3.47;1.37;;;26.00;69.50;;;;;;10961682;32;20402;-69
2022/07/02 03:23:57;;;;;;;4.05;1.23;;;25.90;69.80;;;;;;10976671;32;20048;-69
2022/07/02 03:29:59;;;;;;;1.55;0.95;;;25.80;69.60;;;;;;10974673;32;20049;-69
2022/07/02 03:36:01;;;;;;;1.83;0.95;;;25.80;69.80;;;;;;10976619;32;20049;-69
2022/07/02 03:42:03;;;;;;;2.42;1.30;;;25.50;70.20;;;;;;10961144;32;20459;-69
2022/07/02 03:48:06;;;;;;;2.58;1.58;;;25.50;70.30;;;;;;10977560;32;20065;-69
2022/07/02 03:54:08;;;;;;;2.70;1.40;;;25.60;70.00;;;;;;10977526;32;20052;-69
2022/07/02 04:00:11;;;;;;;3.00;1.33;;;25.60;70.10;;;;;;10967937;32;20327;-70
2022/07/02 04:06:33;;;;;;;4.28;2.37;;;25.50;70.10;;;;;;10980988;32;20011;-69
2022/07/02 04:12:39;;;;;;;3.03;1.58;;;25.60;70.10;;;;;;10980579;32;20027;-69
2022/07/02 04:18:41;;;;;;;3.05;1.98;;;25.70;69.90;;;;;;10982742;32;20014;-69
2022/07/02 04:24:43;;;;;;;3.37;1.90;;;25.60;70.00;;;;;;10980369;32;20386;-69
2022/07/02 04:30:46;;;;;;;2.25;1.42;;;25.70;69.80;;;;;;11009150;27;20342;-69
2022/07/02 04:37:02;;;;;;;3.60;1.30;;;25.70;69.60;;;;;;11020214;32;20037;-69
2022/07/02 04:43:05;;;;;;;4.72;1.67;;;25.70;69.50;;;;;;11017986;32;20047;-69
2022/07/02 04:49:08;;;;;;;2.28;1.17;;;25.80;69.50;;;;;;11021649;32;20035;-69
2022/07/02 04:55:10;;;;;;;1.83;1.27;;;25.80;69.50;;;;;;11017356;32;20045;-69
2022/07/02 05:01:27;;;;;;;1.70;0.93;;;25.80;69.50;;;;;;11017131;32;20031;-69
2022/07/02 05:07:46;;;;;;;3.42;1.30;;;25.90;69.30;;;;;;11020641;32;20064;-69
2022/07/02 05:13:48;;;;;;;2.03;1.20;;;26.00;69.30;;;;;;11020910;32;20022;-69
2022/07/02 05:20:17;;;;;;;2.28;0.98;;;26.00;69.30;;;;;;11017229;32;20354;-69
2022/07/02 05:26:20;;;;;;;2.47;1.02;;;26.10;69.10;;;;;;11020376;32;20468;-69
2022/07/02 05:32:22;;;;;;;1.05;0.80;;;26.20;69.10;;;;;;11004131;32;20060;-69
2022/07/02 05:38:24;;;;;;;2.37;1.33;;;26.30;68.90;;;;;;11019928;32;20022;-69
2022/07/02 05:44:43;;;;;;;1.67;1.10;;;26.40;68.80;;;;;;11005685;32;20067;-69
2022/07/02 05:50:45;;;;;;;7.30;1.83;;;26.50;68.60;;;;;;11018606;32;20445;-69
2022/07/02 05:56:47;;;;;;;3.47;1.58;;;26.60;68.50;;;;;;11018400;32;20048;-69
2022/07/02 06:02:49;;;;;;;3.17;1.30;;;26.80;68.30;;;;;;11017866;32;20238;-69
2022/07/02 06:08:52;;;;;;;1.27;0.62;;;26.90;68.10;;;;;;11008308;32;20035;-69
2022/07/02 06:14:54;;;;;;;1.60;0.98;;;27.00;68.00;;;;;;10979366;32;20307;-69
2022/07/02 06:20:56;;;;;;;2.45;1.10;;;27.20;67.90;;;;;;10976025;32;20053;-69
2022/07/02 06:26:59;;;;;;;2.25;0.70;;;27.30;67.60;;;;;;10980098;32;20023;-69
2022/07/02 06:33:03;;;;;;;0.75;0.52;;;27.40;67.30;;;;;;10979103;32;20034;-70
2022/07/02 06:39:05;;;;;;;3.42;1.92;;;27.50;67.10;;;;;;10975065;32;20023;-68
2022/07/02 06:45:08;;;;;;;1.15;0.50;;;27.60;66.60;;;;;;10979802;32;20018;-74
2022/07/02 06:51:17;;;;;;;1.35;1.00;;;27.70;66.60;;;;;;11010493;32;20057;-72
2022/07/02 06:57:19;;;;;;;1.25;0.68;;;27.80;66.60;;;;;;11018011;32;20081;-74
2022/07/02 07:03:27;;;;;;;1.25;0.85;;;27.90;66.30;;;;;;11017826;32;20045;-73
2022/07/02 07:09:30;;;;;;;7.70;1.48;;;28.10;65.60;;;;;;11017345;32;20061;-74
2022/07/02 07:15:33;;;;;;;3.33;1.77;;;28.20;65.20;;;;;;11017171;32;20068;-73
2022/07/02 07:21:37;;;;;;;2.67;1.73;;;28.30;64.20;;;;;;11016290;32;20026;-75
2022/07/02 07:27:39;;;;;;;3.30;2.00;;;28.30;64.40;;;;;;11018241;32;20084;-75
2022/07/02 07:33:42;;;;;;;21.55;2.85;;;28.50;63.80;;;;;;11024197;32;20049;-74
2022/07/02 07:39:44;;;;;;;4.03;1.65;;;28.70;63.50;;;;;;11019160;32;20056;-73
2022/07/02 07:45:47;;;;;;;2.35;1.40;;;28.80;62.80;;;;;;10985574;32;20045;-73
2022/07/02 07:51:49;;;;;;;4.30;1.98;;;29.00;63.30;;;;;;10972466;32;20042;-73
2022/07/02 07:57:51;;;;;;;4.50;2.08;;;29.10;62.70;;;;;;11001284;32;20034;-74
2022/07/02 08:04:11;;;;;;;2.45;1.33;;;29.30;61.60;;;;;;10990875;32;20304;-73
2022/07/02 08:10:13;;;;;;;2.58;1.62;;;29.40;60.90;;;;;;11006068;32;20026;-74
2022/07/02 08:16:36;;;;;;;14.85;1.70;;;29.60;61.50;;;;;;11008081;32;20331;-75
2022/07/02 08:22:39;;;;;;;3.28;1.83;;;29.70;61.20;;;;;;11023453;32;20030;-73
2022/07/02 08:28:42;;;;;;;6.43;2.20;;;29.80;60.80;;;;;;11018580;32;20368;-74
2022/07/02 08:34:45;;;;;;;3.75;2.22;;;29.90;60.30;;;;;;11020881;32;20319;-76
2022/07/02 08:40:52;;;;;;;4.10;2.00;;;30.10;59.40;;;;;;11020434;32;20026;-73
2022/07/02 08:46:56;;;;;;;3.10;1.90;;;30.30;58.90;;;;;;10983412;32;20041;-72
2022/07/02 08:52:58;;;;;;;4.43;1.80;;;30.30;58.30;;;;;;10970073;32;20040;-73
2022/07/02 08:59:01;;;;;;;4.03;1.75;;;30.30;57.90;;;;;;10979860;32;20069;-74
2022/07/02 09:05:36;;;;;;;5.97;2.42;;;30.40;57.30;;;;;;10983274;32;20018;-73
2022/07/02 09:11:39;;;;;;;2.60;1.70;;;30.70;56.40;;;;;;10983253;32;20026;-73
2022/07/02 09:17:42;;;;;;;12.73;1.95;;;30.90;55.80;;;;;;10982753;32;20037;-73
2022/07/02 09:23:50;;;;;;;3.83;2.17;;;31.00;55.10;;;;;;10967031;32;20023;-74
2022/07/02 09:29:53;;;;;;;1.87;1.27;;;31.20;54.60;;;;;;10981717;32;20014;-74
2022/07/02 09:35:55;;;;;;;5.78;2.20;;;31.30;54.40;;;;;;10981764;32;20023;-74
2022/07/02 09:41:58;;;;;;;2.35;1.52;;;31.40;54.40;;;;;;10979442;32;20027;-69
2022/07/02 09:48:03;;;;;;;6.53;2.00;;;31.60;54.40;;;;;;10968192;32;20077;-70
2022/07/02 09:54:06;;;;;;;4.43;1.75;;;31.70;52.90;;;;;;10981134;32;20045;-70
2022/07/02 10:00:08;;;;;;;5.07;1.85;;;31.80;53.50;;;;;;10967666;32;20053;-70
2022/07/02 10:06:12;;;;;;;5.97;2.12;;;31.90;52.50;;;;;;10980945;32;20015;-70
2022/07/02 10:12:30;;;;;;;2.00;1.55;;;32.10;52.10;;;;;;10976351;32;20342;-70
2022/07/02 10:18:58;;;;;;;4.47;1.98;;;32.30;52.00;;;;;;10980379;32;20018;-71
2022/07/02 10:25:01;;;;;;;2.35;1.42;;;32.50;51.30;;;;;;10980362;32;20065;-70
2022/07/02 10:31:05;;;;;;;6.55;2.15;;;32.70;50.70;;;;;;10979974;32;20022;-70
2022/07/02 10:37:08;;;;;;;3.28;1.75;;;32.90;50.20;;;;;;10979870;32;20052;-70
2022/07/02 10:43:40;;;;;;;3.63;1.50;;;33.00;49.60;;;;;;10979870;32;20015;-71
2022/07/02 10:49:43;;;;;;;5.43;2.15;;;33.10;49.20;;;;;;10979673;32;20022;-73
2022/07/02 10:55:58;;;;;;;7.05;2.53;;;33.30;48.60;;;;;;10966359;32;20019;-74
2022/07/02 11:02:08;;;;;;;8.13;1.98;;;33.50;48.10;;;;;;10980254;32;20085;-76
2022/07/02 11:08:45;;;;;;;4.93;2.45;;;33.80;47.70;;;;;;10987475;32;20045;-74
2022/07/02 11:14:56;;;;;;;2.03;1.42;;;33.90;46.20;;;;;;10987226;32;20057;-75
2022/07/02 11:20:59;;;;;;;4.12;1.80;;;34.10;46.20;;;;;;10986999;32;20018;-75
2022/07/02 11:27:01;;;;;;;6.93;2.00;;;34.30;45.50;;;;;;10986804;32;20019;-75
2022/07/02 11:33:22;;;;;;;3.33;2.05;;;34.70;44.80;;;;;;10478318;32;14500749;-72
2022/07/02 11:39:26;;;;;;;3.22;1.75;;;34.80;44.30;;;;;;10945280;32;20022;-73
2022/07/02 11:45:48;;;;;;;5.25;1.73;;;35.00;44.10;;;;;;10945470;32;20066;-73
2022/07/02 11:52:01;;;;;;;5.00;2.12;;;35.20;44.10;;;;;;10930945;32;20030;-73
2022/07/02 11:58:03;;;;;;;4.00;1.87;;;35.30;43.80;;;;;;11006429;32;20034;-73
2022/07/02 12:04:09;;;;;;;4.30;1.42;;;35.40;43.40;;;;;;11023647;32;20034;-73
2022/07/02 12:10:15;;;;;;;5.57;1.90;;;35.60;42.70;;;;;;11023402;32;20088;-72
2022/07/02 12:16:20;;;;;;;4.43;1.95;;;35.70;42.10;;;;;;11023016;32;20018;-72
2022/07/02 12:22:26;;;;;;;3.40;1.30;;;35.70;41.90;;;;;;11022875;32;20022;-73
2022/07/02 12:35:41;;;;;;;2.62;1.60;;;35.80;40.50;;;;;;10904951;32;20336;-73
2022/07/02 12:41:43;;;;;;;4.45;2.20;;;35.80;40.40;;;;;;10904759;32;20404;-73
2022/07/02 12:48:01;;;;;;;4.75;1.75;;;35.80;40.30;;;;;;10904420;32;20035;-74
2022/07/02 12:54:12;;;;;;;6.60;1.90;;;35.90;40.50;;;;;;10899753;32;20065;-73
2022/07/02 13:00:14;;;;;;;7.95;1.83;;;36.10;40.00;;;;;;10892396;32;20020;-74
2022/07/02 13:06:16;;;;;;;2.60;1.40;;;36.00;39.70;;;;;;10972925;32;20049;-73
2022/07/02 13:12:18;;;;;;;4.60;1.45;;;36.10;39.40;;;;;;10982091;32;20034;-75
2022/07/02 13:18:21;;;;;;;6.50;1.60;;;36.10;39.10;;;;;;10968270;32;20369;-74
2022/07/02 13:24:23;;;;;;;6.65;2.65;;;36.10;38.80;;;;;;10968404;32;20022;-74
2022/07/02 13:30:25;;;;;;;6.00;1.85;;;36.00;40.10;;;;;;10982131;32;20034;-73
2022/07/02 13:36:51;;;;;;;4.37;1.83;;;36.00;41.10;;;;;;10982078;32;20394;-73
2022/07/02 13:43:12;;;;;;;5.90;2.07;;;35.90;42.10;;;;;;10977217;32;20038;-74
2022/07/02 13:49:50;;;;;;;5.10;2.22;;;35.90;42.40;;;;;;10792074;33;20063;-74
2022/07/02 13:55:57;;;;;;;8.68;2.25;;;35.60;43.60;;;;;;10791708;33;20317;-72
2022/07/02 14:02:00;;;;;;;15.55;3.15;;;35.50;43.40;;;;;;10790593;33;20032;-74
2022/07/02 14:08:10;;;;;;;4.70;2.80;;;35.60;43.60;;;;;;10791332;33;20013;-73
2022/07/02 14:14:12;;;;;;;6.10;2.53;;;35.40;44.80;;;;;;10790347;33;20028;-74
2022/07/02 14:20:14;;;;;;;3.95;2.28;;;35.40;44.20;;;;;;10789733;33;20020;-74
2022/07/02 14:26:17;;;;;;;3.90;1.87;;;35.40;44.10;;;;;;10790655;33;20043;-73
2022/07/02 14:32:19;;;;;;;5.72;2.67;;;35.50;43.80;;;;;;10789586;33;20055;-74
2022/07/02 14:38:37;;;;;;;5.07;2.60;;;35.40;43.70;;;;;;10788852;33;20029;-72
2022/07/02 14:44:39;;;;;;;3.35;1.62;;;35.40;43.80;;;;;;10875920;32;20006;-73
2022/07/02 14:50:47;;;;;;;3.97;1.87;;;35.30;44.40;;;;;;10928760;32;20063;-74
2022/07/02 14:56:49;;;;;;;4.35;2.30;;;35.30;44.30;;;;;;10941889;32;20045;-73
2022/07/02 15:02:51;;;;;;;4.47;1.70;;;35.40;44.20;;;;;;10941128;32;20055;-72
2022/07/02 15:09:30;;;;;;;2.83;1.70;;;35.40;43.80;;;;;;10941747;32;20057;-74
2022/07/02 15:22:03;;;;;;;3.00;1.60;;;35.50;43.80;;;;;;10789925;32;20024;-73
2022/07/02 15:28:14;;;;;;;5.57;2.03;;;35.50;43.60;;;;;;10788341;32;20058;-74
2022/07/02 15:34:27;;;;;;;9.35;2.15;;;35.50;43.60;;;;;;10787418;33;20036;-73
2022/07/02 15:40:29;;;;;;;2.67;1.52;;;35.60;43.40;;;;;;10776873;33;20029;-69
2022/07/02 15:46:32;;;;;;;4.80;1.98;;;35.60;43.30;;;;;;10772744;33;20404;-69
2022/07/02 15:52:37;;;;;;;4.05;1.67;;;35.60;43.10;;;;;;10923087;32;20054;-69
2022/07/02 15:58:52;;;;;;;3.80;2.00;;;35.70;43.00;;;;;;10934222;32;20022;-70
2022/07/02 16:04:55;;;;;;;2.50;1.47;;;35.80;42.80;;;;;;10947537;32;20323;-69
2022/07/02 16:10:58;;;;;;;4.93;2.20;;;35.80;43.00;;;;;;10947452;32;20046;-70
2022/07/02 16:17:14;;;;;;;11.48;2.60;;;35.70;42.70;;;;;;10947180;32;20024;-70
2022/07/02 16:23:17;;;;;;;5.73;2.13;;;35.80;42.50;;;;;;10946745;32;20386;-69
2022/07/02 16:29:22;;;;;;;7.37;2.75;;;35.80;42.30;;;;;;10946413;32;20319;-69
2022/07/02 16:35:57;;;;;;;4.33;2.07;;;35.80;42.40;;;;;;10946409;32;20037;-69
2022/07/02 16:41:59;;;;;;;5.37;2.25;;;35.90;42.20;;;;;;10875645;32;20027;-69
2022/07/02 16:48:02;;;;;;;6.87;2.05;;;35.90;42.30;;;;;;10900882;32;20074;-68
2022/07/02 16:54:06;;;;;;;3.62;1.87;;;36.00;42.50;;;;;;10901928;32;20384;-69
2022/07/02 17:00:32;;;;;;;14.75;2.30;;;35.90;41.90;;;;;;10888502;32;20055;-70
2022/07/02 17:06:37;;;;;;;4.53;1.85;;;35.80;41.70;;;;;;10902525;32;20058;-69
2022/07/02 17:12:39;;;;;;;6.72;2.22;;;35.90;42.20;;;;;;10903207;32;20027;-68
2022/07/02 17:18:41;;;;;;;5.15;2.25;;;35.90;42.20;;;;;;10938871;32;20066;-68
2022/07/02 17:24:43;;;;;;;2.80;1.50;;;35.90;42.40;;;;;;10938716;32;20023;-69
2022/07/02 17:30:45;;;;;;;9.68;2.37;;;36.00;42.50;;;;;;10940483;32;20053;-69
2022/07/02 17:36:53;;;;;;;2.30;1.70;;;36.10;42.50;;;;;;10978739;32;20034;-68
2022/07/02 17:42:55;;;;;;;3.92;2.10;;;36.10;42.60;;;;;;10979487;32;20395;-68
2022/07/02 17:48:58;;;;;;;4.97;1.60;;;36.20;42.70;;;;;;10980600;32;20077;-68
2022/07/02 17:55:00;;;;;;;3.45;1.73;;;36.40;42.50;;;;;;10979426;32;20323;-68
2022/07/02 18:01:02;;;;;;;2.70;1.48;;;37.60;41.10;;;;;;10979445;32;20386;-68
2022/07/02 18:07:04;;;;;;;7.05;2.33;;;38.00;40.50;;;;;;10978848;32;20072;-69
2022/07/02 18:13:07;;;;;;;7.78;2.35;;;36.90;42.20;;;;;;10977677;32;20057;-68
2022/07/02 18:19:09;;;;;;;19.83;2.55;;;36.00;43.90;;;;;;10974196;32;20030;-68
2022/07/02 18:25:11;;;;;;;5.10;1.67;;;35.40;44.80;;;;;;10975282;32;20393;-68
2022/07/02 18:31:13;;;;;;;7.43;2.33;;;35.00;45.50;;;;;;10976597;32;20030;-67
2022/07/02 18:37:15;;;;;;;6.15;2.20;;;34.70;46.00;;;;;;10976000;32;20049;-67
2022/07/02 18:43:18;;;;;;;4.87;2.10;;;34.40;46.50;;;;;;10977589;32;20034;-67
2022/07/02 18:49:26;;;;;;;3.85;1.77;;;34.20;47.00;;;;;;10975235;32;20031;-67
2022/07/02 18:55:29;;;;;;;4.30;2.08;;;34.00;47.30;;;;;;10972388;32;20069;-67
2022/07/02 19:01:31;;;;;;;4.82;2.37;;;33.90;47.50;;;;;;10977144;32;20080;-67
2022/07/02 19:07:33;;;;;;;12.80;3.25;;;33.70;47.90;;;;;;10976804;32;20053;-67
2022/07/02 19:13:35;;;;;;;4.00;2.15;;;33.60;48.20;;;;;;10976919;32;20019;-67
2022/07/02 19:19:37;;;;;;;5.40;2.05;;;33.40;48.50;;;;;;10934779;32;20043;-66
2022/07/02 19:25:42;;;;;;;2.65;1.02;;;33.30;48.90;;;;;;10959798;32;20043;-67
2022/07/02 19:31:59;;;;;;;6.35;1.83;;;33.30;49.10;;;;;;10978219;32;20428;-67
2022/07/02 19:38:03;;;;;;;4.00;1.77;;;33.10;49.50;;;;;;10983263;32;20070;-66
2022/07/02 19:44:05;;;;;;;4.62;1.25;;;33.00;49.60;;;;;;10969563;32;20049;-67
2022/07/02 19:50:07;;;;;;;3.12;1.45;;;32.90;50.00;;;;;;10970115;32;20045;-67
2022/07/02 19:56:09;;;;;;;4.55;1.45;;;32.90;50.10;;;;;;10964111;32;20026;-73
2022/07/02 20:02:20;;;;;;;2.83;1.45;;;32.70;50.40;;;;;;10955212;32;20062;-73
2022/07/02 20:09:05;;;;;;;3.55;1.20;;;32.60;50.70;;;;;;10960790;32;20058;-75
2022/07/02 20:15:34;;;;;;;2.08;1.30;;;32.50;51.00;;;;;;10981945;32;20006;-73
2022/07/02 20:21:39;;;;;;;1.45;1.05;;;32.40;51.30;;;;;;10979082;32;20312;-73
2022/07/02 20:27:44;;;;;;;4.28;1.98;;;32.30;51.60;;;;;;10987906;27;20108;-73
2022/07/02 20:34:14;;;;;;;7.05;1.92;;;32.20;52.30;;;;;;11004741;32;20031;-74
2022/07/02 20:40:18;;;;;;;3.62;2.00;;;32.10;52.60;;;;;;10992575;32;20038;-73
2022/07/02 20:46:28;;;;;;;2.95;1.87;;;32.00;52.90;;;;;;10992376;32;20030;-72
2022/07/02 20:53:05;;;;;;;5.90;1.50;;;31.80;53.80;;;;;;10982662;32;20046;-73
2022/07/02 20:59:10;;;;;;;3.85;1.77;;;31.70;54.50;;;;;;11008984;32;20354;-73
2022/07/02 21:05:16;;;;;;;2.28;1.23;;;31.60;54.40;;;;;;11009827;32;20034;-72
2022/07/02 21:11:22;;;;;;;3.90;1.70;;;31.60;54.60;;;;;;10982523;32;20049;-73
2022/07/02 21:17:26;;;;;;;5.10;1.55;;;31.40;55.30;;;;;;10992861;32;20034;-73
2022/07/02 21:23:29;;;;;;;5.47;1.50;;;31.30;55.80;;;;;;10996751;32;20023;-73
2022/07/02 21:29:33;;;;;;;4.97;1.33;;;31.20;56.60;;;;;;10997963;32;20374;-75
2022/07/02 21:36:08;;;;;;;2.97;1.30;;;31.10;57.10;;;;;;11011020;32;20023;-75
2022/07/02 21:42:12;;;;;;;3.78;1.62;;;31.00;57.00;;;;;;11000669;32;20050;-75
2022/07/02 21:48:18;;;;;;;3.10;1.80;;;31.00;57.10;;;;;;10987216;32;20026;-75
2022/07/02 21:54:22;;;;;;;1.90;1.62;;;31.00;57.10;;;;;;10984280;32;20053;-74
2022/07/02 22:00:28;;;;;;;4.57;1.65;;;30.90;57.40;;;;;;11017853;32;20026;-74
2022/07/02 22:06:30;;;;;;;4.40;1.77;;;30.80;57.80;;;;;;11002645;32;20041;-72
2022/07/02 22:12:32;;;;;;;2.08;1.33;;;30.80;57.90;;;;;;11012796;32;20026;-74
2022/07/02 22:18:35;;;;;;;3.08;1.80;;;30.70;58.20;;;;;;11016448;32;20034;-77
2022/07/02 22:24:37;;;;;;;8.20;3.25;;;30.60;58.20;;;;;;11004377;32;20026;-76
2022/07/02 22:30:39;;;;;;;4.03;2.15;;;30.50;58.40;;;;;;11017867;32;20033;-76
2022/07/02 22:36:41;;;;;;;9.93;2.12;;;30.40;59.10;;;;;;11017696;32;20386;-77
2022/07/02 22:42:43;;;;;;;2.30;1.67;;;30.30;59.30;;;;;;11017559;32;20018;-77
2022/07/02 22:48:45;;;;;;;3.45;2.03;;;30.30;59.20;;;;;;11017645;32;20018;-77
2022/07/02 22:54:47;;;;;;;3.95;1.80;;;30.30;59.30;;;;;;11004047;32;20037;-77
2022/07/02 23:00:49;;;;;;;6.18;2.00;;;30.20;59.20;;;;;;11017057;32;20053;-77
2022/07/02 23:06:51;;;;;;;3.42;1.58;;;30.20;59.40;;;;;;11017772;32;20084;-77
2022/07/02 23:13:11;;;;;;;4.30;2.03;;;30.10;59.40;;;;;;11019522;32;20026;-77
2022/07/02 23:19:14;;;;;;;5.35;1.87;;;30.10;59.50;;;;;;11016954;32;20007;-77
2022/07/02 23:25:16;;;;;;;6.10;2.78;;;30.10;59.60;;;;;;11016858;32;20330;-76
2022/07/02 23:31:21;;;;;;;4.37;2.25;;;29.90;59.80;;;;;;11012929;32;20022;-76
2022/07/02 23:37:23;;;;;;;2.47;1.77;;;29.90;60.20;;;;;;11017137;32;20018;-76
2022/07/02 23:43:26;;;;;;;5.75;3.12;;;30.00;60.20;;;;;;11012695;32;20026;-77
2022/07/02 23:49:31;;;;;;;5.53;3.00;;;30.00;60.30;;;;;;11016957;32;20030;-77
2022/07/02 23:55:33;;;;;;;4.80;2.33;;;29.90;60.40;;;;;;11003275;32;20018;-77
